createdAt,value
2022-08-11T00:04:48.320Z,33.9
2022-08-11T00:10:28.835Z,33.9
2022-08-11T00:16:15.961Z,33.9
2022-08-11T00:23:27.051Z,33.9
2022-08-11T00:29:26.718Z,33.9
2022-08-11T00:36:13.648Z,33.9
2022-08-11T00:41:58.737Z,33.9
2022-08-11T00:47:25.462Z,33.9
2022-08-11T00:53:42.901Z,33.9
2022-08-11T01:00:08.037Z,33.9
2022-08-11T01:05:58.033Z,33.9
2022-08-11T01:12:12.354Z,33.8
2022-08-11T01:18:09.481Z,33.8
2022-08-11T01:24:42.363Z,33.8
2022-08-11T01:31:01.461Z,33.8
2022-08-11T01:36:38.119Z,33.8
2022-08-11T01:42:01.710Z,33.8
2022-08-11T01:47:25.249Z,33.8
2022-08-11T01:54:13.576Z,33.8
2022-08-11T01:59:49.716Z,33.8
2022-08-11T02:05:36.227Z,33.8
2022-08-11T02:11:46.319Z,33.7
2022-08-11T02:17:19.046Z,33.7
2022-08-11T02:22:58.728Z,33.7
2022-08-11T02:29:35.810Z,33.7
2022-08-11T02:36:38.859Z,33.6
2022-08-11T02:42:03.935Z,33.6
2022-08-11T02:48:16.547Z,33.6
2022-08-11T02:54:12.704Z,33.6
2022-08-11T03:00:10.948Z,33.6
2022-08-11T03:05:43.726Z,33.6
2022-08-11T03:11:27.753Z,33.6
2022-08-11T03:16:55.051Z,33.6
2022-08-11T03:23:20.190Z,33.6
2022-08-11T03:28:48.755Z,33.5
2022-08-11T03:34:29.885Z,33.6
2022-08-11T03:40:46.355Z,33.5
2022-08-11T03:47:21.630Z,33.5
2022-08-11T03:53:14.176Z,33.5
2022-08-11T03:58:57.672Z,33.5
2022-08-11T04:04:37.137Z,33.5
2022-08-11T04:10:19.847Z,33.5
2022-08-11T04:16:28.422Z,33.3
2022-08-11T04:22:11.902Z,33.1
2022-08-11T04:30:21.320Z,33.1
2022-08-11T04:36:42.459Z,33.1
2022-08-11T04:42:24.076Z,33.2
2022-08-11T04:48:52.590Z,33.1
2022-08-11T04:55:08.854Z,32.8
2022-08-11T05:00:48.792Z,32.7
2022-08-11T05:06:30.498Z,32.6
2022-08-11T05:11:51.154Z,32.6
2022-08-11T05:17:37.336Z,32.5
2022-08-11T05:23:24.202Z,32.5
2022-08-11T05:30:42.767Z,32.4
2022-08-11T05:37:25.494Z,32.5
2022-08-11T05:44:19.437Z,32.4
2022-08-11T05:50:49.353Z,32.4
2022-08-11T05:57:38.713Z,32.5
2022-08-11T06:03:32.324Z,32.4
2022-08-11T06:09:28.367Z,39.5
2022-08-11T06:15:23.693Z,38.7
2022-08-11T06:21:13.329Z,37.3
2022-08-11T06:27:12.600Z,36.4
2022-08-11T06:33:03.170Z,44.2
2022-08-11T06:38:48.328Z,44.7
2022-08-11T06:44:28.787Z,45.4
2022-08-11T06:50:10.378Z,46
2022-08-11T06:57:48.290Z,46.8
2022-08-11T07:03:11.961Z,47.3
2022-08-11T07:10:23.543Z,47.9
2022-08-11T07:17:19.365Z,48.9
2022-08-11T07:23:43.486Z,49.8
2022-08-11T07:29:52.278Z,50.6
2022-08-11T07:36:02.476Z,51.3
2022-08-11T07:41:48.523Z,51.8
2022-08-11T07:47:27.569Z,52.5
2022-08-11T07:53:10.556Z,53.1
2022-08-11T08:01:43.890Z,53.9
2022-08-11T08:08:04.173Z,54.7
2022-08-11T08:13:26.805Z,55.2
2022-08-11T08:19:31.234Z,55.2
2022-08-11T08:25:52.184Z,55
2022-08-11T08:31:44.473Z,55.7
2022-08-11T08:38:04.004Z,55.3
2022-08-11T08:50:36.243Z,55.6
2022-08-11T08:57:16.905Z,56.6
2022-08-11T09:03:36.354Z,57.1
2022-08-11T09:09:22.614Z,57.5
2022-08-11T09:14:57.623Z,57.9
2022-08-11T09:20:48.231Z,58.4
2022-08-11T09:27:54.000Z,58.9
2022-08-11T09:33:35.730Z,59.3
2022-08-11T09:39:39.142Z,59.6
2022-08-11T09:45:56.770Z,60
2022-08-11T09:51:41.249Z,60.4
2022-08-11T09:58:42.183Z,60.8
2022-08-11T10:04:29.864Z,61.2
2022-08-11T10:10:19.232Z,61.6
2022-08-11T10:17:53.669Z,62.1
2022-08-11T10:24:00.165Z,62.4
2022-08-11T10:31:17.476Z,62.8
2022-08-11T10:38:42.543Z,63.3
2022-08-11T10:45:56.672Z,63.6
2022-08-11T10:52:08.670Z,64
2022-08-11T10:58:04.467Z,64.1
2022-08-11T11:04:12.042Z,64.4
2022-08-11T11:10:47.453Z,64.8
2022-08-11T11:16:39.854Z,65.1
2022-08-11T11:22:49.895Z,65.3
2022-08-11T11:28:40.286Z,65.6
2022-08-11T11:35:09.981Z,65.8
2022-08-11T11:41:08.042Z,65.7
2022-08-11T11:47:03.263Z,65.9
2022-08-11T11:52:56.809Z,66.3
2022-08-11T11:58:51.623Z,66.4
2022-08-11T12:04:43.829Z,66.7
2022-08-11T12:10:45.309Z,66.8
2022-08-11T12:17:23.219Z,66.9
2022-08-11T12:23:48.283Z,67.1
2022-08-11T12:31:43.817Z,66.9
2022-08-11T12:37:39.880Z,65.8
2022-08-11T12:45:39.084Z,64.6
2022-08-11T12:53:06.437Z,63.7
2022-08-11T12:59:22.830Z,60.7
2022-08-11T13:05:07.577Z,58.1
2022-08-11T13:11:06.631Z,56.1
2022-08-11T13:18:00.830Z,54.6
2022-08-11T13:23:33.728Z,60.6
2022-08-11T13:29:55.079Z,59.4
2022-08-11T13:35:41.377Z,56.4
2022-08-11T13:42:51.064Z,59.9
2022-08-11T13:48:32.774Z,56.8
2022-08-11T13:54:18.714Z,54.8
2022-08-11T14:03:09.344Z,59.5
2022-08-11T14:09:43.782Z,55.6
2022-08-11T14:16:49.739Z,53.5
2022-08-11T14:23:33.181Z,52.4
2022-08-11T14:31:14.116Z,51.7
2022-08-11T14:37:44.902Z,50.9
2022-08-11T14:44:30.929Z,50.4
2022-08-11T14:50:58.262Z,49.9
2022-08-11T14:56:49.729Z,49.4
2022-08-11T15:03:03.545Z,49.1
2022-08-11T15:10:14.599Z,48.8
2022-08-11T15:16:22.343Z,48.4
2022-08-11T15:22:16.415Z,48.1
2022-08-11T15:27:54.442Z,47.9
2022-08-11T15:34:07.583Z,47.7
2022-08-11T15:40:23.870Z,47.4
2022-08-11T15:46:47.395Z,47.2
2022-08-11T15:53:08.913Z,46.9
2022-08-11T15:58:49.160Z,46.6
2022-08-11T16:06:38.991Z,45.9
2022-08-11T16:13:09.557Z,45.5
2022-08-11T16:18:47.110Z,45.3
2022-08-11T16:27:41.150Z,45.1
2022-08-11T16:34:04.984Z,44.8
2022-08-11T16:39:50.187Z,44.7
2022-08-11T16:46:33.778Z,44.5
2022-08-11T16:53:08.850Z,44.4
2022-08-11T17:00:31.095Z,44.3
2022-08-11T17:06:12.263Z,44.1
2022-08-11T17:12:49.634Z,44
2022-08-11T17:18:34.352Z,43.9
2022-08-11T17:25:58.856Z,43.6
2022-08-11T17:32:11.843Z,43.3
2022-08-11T17:38:09.215Z,43.1
2022-08-11T17:43:58.991Z,42.9
2022-08-11T17:49:39.643Z,42.8
2022-08-11T17:56:26.182Z,42.6
2022-08-11T18:02:34.491Z,42.5
2022-08-11T18:08:32.502Z,42.4
2022-08-11T18:15:02.826Z,42.3
2022-08-11T18:20:36.878Z,42.3
2022-08-11T18:26:57.360Z,42.1
2022-08-11T18:33:25.342Z,42.1
2022-08-11T18:39:41.442Z,41.9
2022-08-11T18:45:44.570Z,41.9
2022-08-11T18:53:10.520Z,41.8
2022-08-11T18:59:00.614Z,41.7
2022-08-11T19:04:54.391Z,41.6
2022-08-11T19:12:00.379Z,41.5
2022-08-11T19:18:02.001Z,41.5
2022-08-11T19:23:45.745Z,41.4
2022-08-11T19:28:56.293Z,41.3
2022-08-11T19:35:58.009Z,40.8
2022-08-11T19:42:13.712Z,39.9
2022-08-11T19:48:47.728Z,39.7
2022-08-11T19:54:40.683Z,39.5
2022-08-11T20:00:09.288Z,39.4
2022-08-11T20:06:32.876Z,39.3
2022-08-11T20:12:57.794Z,39.2
2022-08-11T20:18:33.178Z,39.1
2022-08-11T20:24:51.173Z,39.1
2022-08-11T20:31:08.327Z,39.1
2022-08-11T20:36:39.796Z,39
2022-08-11T20:42:49.677Z,39
2022-08-11T20:50:08.123Z,38.9
2022-08-11T20:57:02.022Z,38.9
2022-08-11T21:16:03.577Z,38.8
2022-08-11T21:23:57.483Z,38.8
2022-08-11T21:29:51.180Z,38.6
2022-08-11T21:35:30.316Z,38.6
2022-08-11T21:41:23.282Z,38.6
2022-08-11T21:47:10.253Z,38.6
2022-08-11T21:53:11.250Z,38.5
2022-08-11T21:58:55.694Z,38.5
2022-08-11T22:04:41.946Z,38.4
2022-08-11T22:10:27.671Z,38.4
2022-08-11T22:17:33.235Z,38.4
2022-08-11T22:24:28.706Z,38.4
2022-08-11T22:30:56.375Z,38.3
2022-08-11T22:37:07.403Z,38.3
2022-08-11T22:42:49.509Z,38.3
2022-08-11T22:48:13.404Z,38.3
2022-08-11T22:54:15.231Z,38.2
2022-08-11T22:59:58.675Z,38.1
2022-08-11T23:06:15.143Z,38.1
2022-08-11T23:12:26.593Z,38.1
2022-08-11T23:17:54.822Z,38.1
2022-08-11T23:25:02.164Z,38
2022-08-11T23:30:44.232Z,38
2022-08-11T23:38:25.319Z,37.9
2022-08-11T23:44:08.720Z,37.9
2022-08-11T23:50:03.281Z,37.9
2022-08-11T23:55:59.933Z,37.9
